createdAt,value
2022-10-04T00:01:44.955Z,6.38
2022-10-04T00:04:25.910Z,5.80
2022-10-04T00:07:00.095Z,10.20
2022-10-04T00:11:55.726Z,6.97
2022-10-04T00:14:26.267Z,8.13
2022-10-04T00:16:53.048Z,5.30
2022-10-04T00:19:19.283Z,8.00
2022-10-04T00:21:51.623Z,5.60
2022-10-04T00:24:35.622Z,9.20
2022-10-04T00:27:21.443Z,4.82
2022-10-04T00:30:02.709Z,6.50
2022-10-04T00:32:39.386Z,6.30
2022-10-04T00:35:27.158Z,7.72
2022-10-04T00:38:00.128Z,5.38
2022-10-04T00:40:34.375Z,5.30
2022-10-04T00:43:15.661Z,5.32
2022-10-04T00:45:47.461Z,8.75
2022-10-04T00:48:48.704Z,7.68
2022-10-04T00:51:44.076Z,6.60
2022-10-04T00:54:22.218Z,6.57
2022-10-04T00:56:56.730Z,7.15
2022-10-04T00:59:36.085Z,7.70
2022-10-04T01:02:14.551Z,5.32
2022-10-04T01:04:46.370Z,8.73
2022-10-04T01:07:15.114Z,6.47
2022-10-04T01:09:47.934Z,5.00
2022-10-04T01:12:26.104Z,5.22
2022-10-04T01:15:16.672Z,6.20
2022-10-04T01:18:09.287Z,9.30
2022-10-04T01:20:39.774Z,6.93
2022-10-04T01:23:06.097Z,8.07
2022-10-04T01:25:47.412Z,9.63
2022-10-04T01:28:14.001Z,9.23
2022-10-04T01:30:40.395Z,7.43
2022-10-04T01:33:06.966Z,10.25
2022-10-04T01:35:35.287Z,6.30
2022-10-04T01:38:08.337Z,9.20
2022-10-04T01:40:36.169Z,11.60
2022-10-04T01:43:06.476Z,5.93
2022-10-04T01:45:39.870Z,10.70
2022-10-04T01:48:12.960Z,9.60
2022-10-04T01:50:46.592Z,9.45
2022-10-04T01:53:21.037Z,8.02
2022-10-04T01:55:50.948Z,8.95
2022-10-04T01:58:24.530Z,6.40
2022-10-04T02:01:15.802Z,6.90
2022-10-04T02:03:45.729Z,9.30
2022-10-04T02:06:13.291Z,6.43
2022-10-04T02:08:45.854Z,7.22
2022-10-04T02:11:22.529Z,8.35
2022-10-04T02:13:51.343Z,7.97
2022-10-04T02:16:18.078Z,11.45
2022-10-04T02:18:44.817Z,6.40
2022-10-04T02:21:12.007Z,7.40
2022-10-04T02:23:39.406Z,7.60
2022-10-04T02:26:07.135Z,7.30
2022-10-04T02:28:34.305Z,9.27
2022-10-04T02:31:19.579Z,9.10
2022-10-04T02:33:47.648Z,16.70
2022-10-04T02:36:15.730Z,9.88
2022-10-04T02:38:52.567Z,12.50
2022-10-04T02:41:29.790Z,11.93
2022-10-04T02:44:01.913Z,11.50
2022-10-04T02:46:32.296Z,10.63
2022-10-04T02:49:06.011Z,10.48
2022-10-04T02:51:46.796Z,10.93
2022-10-04T02:54:38.349Z,9.98
2022-10-04T02:57:04.885Z,11.82
2022-10-04T02:59:34.696Z,12.50
2022-10-04T03:02:02.049Z,12.13
2022-10-04T03:04:39.160Z,11.45
2022-10-04T03:07:07.828Z,11.82
2022-10-04T03:09:36.302Z,10.05
2022-10-04T03:12:04.233Z,10.27
2022-10-04T03:14:31.778Z,10.13
2022-10-04T03:17:00.655Z,9.82
2022-10-04T03:19:29.671Z,8.20
2022-10-04T03:21:58.987Z,8.32
2022-10-04T03:24:29.448Z,9.70
2022-10-04T03:26:57.116Z,11.82
2022-10-04T03:29:25.536Z,9.52
2022-10-04T03:31:53.148Z,10.38
2022-10-04T03:34:36.028Z,11.35
2022-10-04T03:37:03.350Z,9.38
2022-10-04T03:39:59.759Z,10.07
2022-10-04T03:42:28.918Z,8.20
2022-10-04T03:44:59.682Z,9.52
2022-10-04T03:47:35.410Z,11.85
2022-10-04T03:50:14.019Z,11.77
2022-10-04T03:52:44.378Z,10.82
2022-10-04T03:55:12.409Z,8.85
2022-10-04T03:57:38.741Z,8.25
2022-10-04T04:00:06.924Z,11.70
2022-10-04T04:02:42.508Z,7.82
2022-10-04T04:05:24.928Z,11.73
2022-10-04T04:08:12.203Z,8.18
2022-10-04T04:10:42.767Z,9.07
2022-10-04T04:13:24.329Z,9.85
2022-10-04T04:15:50.933Z,8.95
2022-10-04T04:18:20.492Z,7.38
2022-10-04T04:20:47.752Z,10.20
2022-10-04T04:23:13.954Z,10.90
2022-10-04T04:25:43.011Z,9.50
2022-10-04T04:28:38.952Z,9.60
2022-10-04T04:31:09.889Z,10.48
2022-10-04T04:33:43.842Z,8.65
2022-10-04T04:36:12.749Z,8.57
2022-10-04T04:38:57.492Z,8.20
2022-10-04T04:41:25.579Z,8.20
2022-10-04T04:43:51.916Z,7.85
2022-10-04T04:46:29.722Z,10.27
2022-10-04T04:49:02.296Z,10.75
2022-10-04T04:51:29.023Z,7.78
2022-10-04T04:53:56.432Z,8.82
2022-10-04T04:56:26.962Z,8.45
2022-10-04T04:58:55.533Z,9.40
2022-10-04T05:01:37.318Z,11.55
2022-10-04T05:04:05.018Z,8.95
2022-10-04T05:06:34.379Z,8.45
2022-10-04T05:09:01.139Z,9.82
2022-10-04T05:11:30.922Z,7.70
2022-10-04T05:14:02.266Z,7.82
2022-10-04T05:16:41.615Z,10.13
2022-10-04T05:19:14.386Z,8.80
2022-10-04T05:21:43.694Z,9.80
2022-10-04T05:24:24.311Z,12.32
2022-10-04T05:27:01.926Z,8.73
2022-10-04T05:29:32.218Z,10.57
2022-10-04T05:32:28.732Z,10.75
2022-10-04T05:34:55.117Z,13.85
2022-10-04T05:37:43.260Z,12.43
2022-10-04T05:40:12.934Z,10.95
2022-10-04T05:42:45.042Z,14.05
2022-10-04T05:45:18.441Z,8.23
2022-10-04T05:47:46.518Z,10.52
2022-10-04T05:50:40.686Z,9.20
2022-10-04T05:53:36.033Z,11.40
2022-10-04T05:56:26.547Z,11.80
2022-10-04T05:58:56.369Z,11.38
2022-10-04T06:01:54.807Z,11.27
2022-10-04T06:04:34.047Z,11.02
2022-10-04T06:07:15.066Z,9.32
2022-10-04T06:10:05.821Z,9.70
2022-10-04T06:12:44.363Z,8.82
2022-10-04T06:15:17.067Z,12.07
2022-10-04T06:17:51.657Z,14.02
2022-10-04T06:20:54.732Z,11.18
2022-10-04T06:23:21.285Z,12.30
2022-10-04T06:26:09.261Z,19.83
2022-10-04T06:28:43.753Z,16.77
2022-10-04T06:31:22.179Z,16.48
2022-10-04T06:34:19.364Z,15.63
2022-10-04T06:37:02.347Z,15.85
2022-10-04T06:40:06.610Z,18.45
2022-10-04T06:42:57.125Z,20.27
2022-10-04T06:45:42.120Z,17.80
2022-10-04T06:48:26.607Z,14.68
2022-10-04T06:53:40.045Z,17.83
2022-10-04T06:56:12.787Z,16.60
2022-10-04T06:58:51.633Z,14.45
2022-10-04T07:01:23.750Z,16.15
2022-10-04T07:04:27.196Z,13.30
2022-10-04T07:07:35.354Z,14.20
2022-10-04T07:10:20.241Z,15.00
2022-10-04T07:13:13.438Z,16.38
2022-10-04T07:16:08.316Z,11.60
2022-10-04T07:19:00.750Z,15.73
2022-10-04T07:21:41.038Z,12.63
2022-10-04T07:24:09.820Z,15.23
2022-10-04T07:26:45.883Z,11.15
2022-10-04T07:29:23.131Z,13.82
2022-10-04T07:32:17.762Z,10.70
2022-10-04T07:34:53.140Z,14.75
2022-10-04T07:37:20.334Z,10.45
2022-10-04T07:40:09.746Z,12.98
2022-10-04T07:42:44.858Z,10.38
2022-10-04T07:45:18.343Z,9.70
2022-10-04T07:47:44.820Z,12.88
2022-10-04T07:50:20.947Z,11.27
2022-10-04T07:52:53.851Z,12.93
2022-10-04T07:55:43.495Z,12.07
2022-10-04T07:58:35.175Z,13.68
2022-10-04T08:01:14.570Z,13.65
2022-10-04T08:03:52.140Z,12.25
2022-10-04T08:06:25.918Z,13.45
2022-10-04T08:09:12.925Z,11.13
2022-10-04T08:12:06.691Z,10.50
2022-10-04T08:15:08.153Z,10.35
2022-10-04T08:17:55.727Z,13.63
2022-10-04T08:20:40.707Z,12.95
2022-10-04T08:23:24.299Z,17.50
2022-10-04T08:26:12.997Z,11.90
2022-10-04T08:29:15.080Z,14.23
2022-10-04T08:32:12.571Z,16.08
2022-10-04T08:34:55.316Z,13.43
2022-10-04T08:37:53.584Z,16.52
2022-10-04T08:40:26.553Z,12.73
2022-10-04T08:43:30.559Z,13.90
2022-10-04T08:46:18.734Z,13.02
2022-10-04T08:48:53.907Z,12.73
2022-10-04T08:51:58.738Z,12.43
2022-10-04T08:54:55.563Z,14.73
2022-10-04T08:57:33.895Z,10.95
2022-10-04T09:00:06.919Z,14.77
2022-10-04T09:02:48.641Z,10.90
2022-10-04T09:05:23.873Z,10.32
2022-10-04T09:08:14.485Z,11.73
2022-10-04T09:10:58.699Z,10.20
2022-10-04T09:14:06.452Z,14.38
2022-10-04T09:16:43.061Z,8.77
2022-10-04T09:19:31.654Z,9.00
2022-10-04T09:22:18.651Z,10.55
2022-10-04T09:25:24.180Z,8.35
2022-10-04T09:28:12.188Z,9.15
2022-10-04T09:30:42.360Z,10.48
2022-10-04T09:33:36.683Z,9.40
2022-10-04T09:36:24.709Z,8.90
2022-10-04T09:39:30.098Z,6.82
2022-10-04T09:42:30.683Z,10.40
2022-10-04T09:45:15.958Z,8.68
2022-10-04T09:47:46.330Z,8.77
2022-10-04T09:50:26.476Z,11.30
2022-10-04T09:53:13.513Z,10.32
2022-10-04T09:55:55.258Z,7.45
2022-10-04T09:58:51.319Z,7.60
2022-10-04T10:01:41.084Z,11.77
2022-10-04T10:04:19.522Z,9.68
2022-10-04T10:07:10.105Z,7.30
2022-10-04T10:10:20.866Z,7.40
2022-10-04T10:13:26.815Z,6.30
2022-10-04T10:16:03.842Z,9.07
2022-10-04T10:18:52.116Z,10.10
2022-10-04T10:21:40.187Z,6.85
2022-10-04T10:24:39.405Z,8.98
2022-10-04T10:27:25.273Z,8.50
2022-10-04T10:29:59.189Z,7.47
2022-10-04T10:32:53.486Z,6.47
2022-10-04T10:35:28.582Z,8.48
2022-10-04T10:38:24.372Z,9.13
2022-10-04T10:41:26.053Z,8.02
2022-10-04T10:44:02.256Z,7.43
2022-10-04T10:46:46.275Z,6.40
2022-10-04T10:49:26.697Z,8.68
2022-10-04T10:52:37.280Z,9.35
2022-10-04T10:55:27.665Z,11.57
2022-10-04T10:58:04.295Z,9.23
2022-10-04T11:00:46.167Z,5.20
2022-10-04T11:03:26.385Z,7.85
2022-10-04T11:06:19.482Z,9.18
2022-10-04T11:09:23.601Z,15.20
2022-10-04T11:12:05.578Z,8.60
2022-10-04T11:14:35.191Z,6.68
2022-10-04T11:17:26.878Z,7.07
2022-10-04T11:20:24.282Z,12.20
2022-10-04T11:23:28.169Z,7.10
2022-10-04T11:26:36.435Z,9.65
2022-10-04T11:29:39.819Z,9.75
2022-10-04T11:32:11.997Z,12.45
2022-10-04T11:35:11.913Z,8.05
2022-10-04T11:37:47.275Z,7.90
2022-10-04T11:40:39.166Z,7.50
2022-10-04T11:43:35.940Z,5.78
2022-10-04T11:46:23.428Z,7.00
2022-10-04T11:49:14.822Z,8.05
2022-10-04T11:52:06.429Z,7.60
2022-10-04T11:54:56.779Z,6.70
2022-10-04T11:57:29.045Z,7.13
2022-10-04T12:00:16.574Z,6.75
2022-10-04T12:02:45.649Z,7.32
2022-10-04T12:05:29.844Z,8.77
2022-10-04T12:08:32.947Z,6.60
2022-10-04T12:11:24.571Z,7.78
2022-10-04T12:14:09.673Z,6.40
2022-10-04T12:17:01.493Z,9.85
2022-10-04T12:19:52.227Z,6.13
2022-10-04T12:23:00.395Z,6.53
2022-10-04T12:25:59.426Z,6.10
2022-10-04T12:28:37.850Z,8.05
2022-10-04T12:31:16.283Z,9.52
2022-10-04T12:33:44.696Z,8.55
2022-10-04T12:36:30.566Z,6.18
2022-10-04T12:39:06.009Z,7.15
2022-10-04T12:42:03.249Z,7.32
2022-10-04T12:44:57.715Z,5.88
2022-10-04T12:47:44.478Z,4.13
2022-10-04T12:50:26.223Z,10.57
2022-10-04T12:53:00.121Z,5.90
2022-10-04T12:55:58.901Z,6.88
2022-10-04T12:59:02.342Z,4.50
2022-10-04T13:01:53.075Z,3.88
2022-10-04T13:04:36.485Z,5.80
2022-10-04T13:07:28.904Z,4.35
2022-10-04T13:10:23.689Z,5.97
2022-10-04T13:13:27.454Z,4.70
2022-10-04T13:19:16.184Z,6.05
2022-10-04T13:22:05.555Z,5.72
2022-10-04T13:24:55.963Z,11.25
2022-10-04T13:27:30.282Z,7.13
2022-10-04T13:33:05.495Z,6.40
2022-10-04T13:35:37.031Z,7.47
2022-10-04T13:38:33.602Z,5.88
2022-10-04T13:41:27.798Z,6.20
2022-10-04T13:44:18.282Z,3.53
2022-10-04T13:47:17.600Z,4.80
2022-10-04T13:50:09.371Z,5.07
2022-10-04T13:53:14.981Z,5.60
2022-10-04T13:56:22.574Z,5.43
2022-10-04T13:59:07.474Z,6.55
2022-10-04T14:01:57.864Z,3.90
2022-10-04T14:05:10.590Z,6.28
2022-10-04T14:07:58.829Z,3.60
2022-10-04T14:10:46.342Z,3.65
2022-10-04T14:13:18.251Z,5.43
2022-10-04T14:16:11.171Z,8.20
2022-10-04T14:19:22.631Z,5.88
2022-10-04T14:22:26.054Z,8.50
2022-10-04T14:25:07.601Z,6.88
2022-10-04T14:27:50.582Z,4.03
2022-10-04T14:30:32.802Z,5.35
2022-10-04T14:33:05.309Z,4.93
2022-10-04T14:35:35.192Z,7.40
2022-10-04T14:38:34.866Z,4.18
2022-10-04T14:41:15.069Z,4.03
2022-10-04T14:43:58.429Z,5.75
2022-10-04T14:46:52.820Z,4.78
2022-10-04T14:50:00.217Z,3.58
2022-10-04T14:52:38.170Z,4.35
2022-10-04T14:55:13.168Z,5.30
2022-10-04T14:57:56.582Z,6.68
2022-10-04T15:00:29.674Z,4.32
2022-10-04T15:03:17.449Z,5.20
2022-10-04T15:05:59.869Z,3.33
2022-10-04T15:09:10.662Z,4.97
2022-10-04T15:11:44.400Z,3.83
2022-10-04T15:14:28.029Z,3.45
2022-10-04T15:16:58.028Z,4.28
2022-10-04T15:19:28.971Z,4.63
2022-10-04T15:21:55.177Z,3.50
2022-10-04T15:24:27.540Z,3.90
2022-10-04T15:27:23.358Z,3.45
2022-10-04T15:30:10.280Z,6.47
2022-10-04T15:33:01.208Z,6.20
2022-10-04T15:35:46.353Z,7.00
2022-10-04T15:39:01.531Z,3.83
2022-10-04T15:41:49.879Z,4.75
2022-10-04T15:44:44.151Z,6.47
2022-10-04T15:47:24.843Z,3.63
2022-10-04T15:49:57.425Z,4.93
2022-10-04T15:53:00.245Z,5.80
2022-10-04T15:55:37.804Z,6.03
2022-10-04T15:58:29.315Z,5.93
2022-10-04T16:01:26.176Z,4.63
2022-10-04T16:04:19.844Z,7.55
2022-10-04T16:07:00.827Z,4.43
2022-10-04T16:09:52.388Z,4.10
2022-10-04T16:12:51.701Z,6.32
2022-10-04T16:15:32.657Z,3.17
2022-10-04T16:18:16.910Z,5.68
2022-10-04T16:20:55.413Z,3.55
2022-10-04T16:23:31.620Z,5.65
2022-10-04T16:26:06.401Z,5.85
2022-10-04T16:28:56.010Z,4.07
2022-10-04T16:31:42.609Z,6.07
2022-10-04T16:34:34.957Z,5.93
2022-10-04T16:37:16.846Z,7.18
2022-10-04T16:40:02.009Z,6.25
2022-10-04T16:42:51.517Z,3.25
2022-10-04T16:45:17.709Z,2.92
2022-10-04T16:48:09.530Z,8.65
2022-10-04T16:51:13.025Z,9.93
2022-10-04T16:54:21.677Z,4.20
2022-10-04T16:56:57.312Z,8.85
2022-10-04T16:59:38.716Z,7.45
2022-10-04T17:02:43.342Z,3.67
2022-10-04T17:05:30.487Z,5.75
2022-10-04T17:08:38.558Z,6.00
2022-10-04T17:11:35.424Z,4.72
2022-10-04T17:14:26.606Z,3.63
2022-10-04T17:17:01.363Z,5.30
2022-10-04T17:19:34.369Z,5.03
2022-10-04T17:22:36.789Z,4.78
2022-10-04T17:25:28.574Z,5.57
2022-10-04T17:28:02.825Z,5.72
2022-10-04T17:33:07.865Z,7.82
2022-10-04T17:35:58.687Z,5.70
2022-10-04T17:38:36.718Z,5.00
2022-10-04T17:41:16.339Z,4.78
2022-10-04T17:44:10.668Z,5.95
2022-10-04T17:47:02.220Z,4.32
2022-10-04T17:50:20.569Z,4.60
2022-10-04T17:53:14.440Z,4.40
2022-10-04T17:55:46.867Z,5.40
2022-10-04T17:58:17.145Z,7.85
2022-10-04T18:00:50.524Z,4.90
2022-10-04T18:03:19.995Z,8.27
2022-10-04T18:05:57.229Z,4.90
2022-10-04T18:08:37.929Z,4.72
2022-10-04T18:11:13.870Z,3.45
2022-10-04T18:14:04.526Z,7.72
2022-10-04T18:16:51.965Z,6.07
2022-10-04T18:19:43.606Z,6.95
2022-10-04T18:22:14.902Z,5.60
2022-10-04T18:24:45.590Z,8.73
2022-10-04T18:27:25.175Z,4.25
2022-10-04T18:30:18.715Z,5.50
2022-10-04T18:32:52.768Z,9.35
2022-10-04T18:35:31.408Z,3.92
2022-10-04T18:38:20.992Z,4.22
2022-10-04T18:40:56.321Z,6.40
2022-10-04T18:43:50.555Z,6.63
2022-10-04T18:46:21.113Z,4.07
2022-10-04T18:48:56.343Z,4.93
2022-10-04T18:51:26.973Z,4.38
2022-10-04T18:54:12.458Z,4.60
2022-10-04T18:56:58.512Z,4.88
2022-10-04T19:00:02.505Z,6.10
2022-10-04T19:02:43.541Z,5.68
2022-10-04T19:05:25.467Z,6.78
2022-10-04T19:08:05.512Z,6.07
2022-10-04T19:10:49.050Z,5.90
2022-10-04T19:13:40.006Z,8.32
2022-10-04T19:16:36.517Z,7.53
2022-10-04T19:19:26.550Z,7.90
2022-10-04T19:22:01.770Z,7.13
2022-10-04T19:24:48.960Z,8.68
2022-10-04T19:27:36.306Z,11.68
2022-10-04T19:30:02.648Z,11.25
2022-10-04T19:32:39.361Z,8.45
2022-10-04T19:35:28.947Z,9.35
2022-10-04T19:38:01.273Z,9.15
2022-10-04T19:40:50.217Z,10.68
2022-10-04T19:43:22.990Z,7.63
2022-10-04T19:46:17.122Z,11.27
2022-10-04T19:48:52.356Z,9.38
2022-10-04T19:51:34.749Z,11.88
2022-10-04T19:54:10.961Z,8.45
2022-10-04T19:56:48.152Z,9.75
2022-10-04T19:59:18.548Z,10.40
2022-10-04T20:01:45.820Z,6.90
2022-10-04T20:04:34.997Z,12.25
2022-10-04T20:07:11.504Z,7.60
2022-10-04T20:09:37.868Z,8.02
2022-10-04T20:12:05.445Z,9.55
2022-10-04T20:14:32.057Z,7.70
2022-10-04T20:17:00.433Z,6.55
2022-10-04T20:19:32.947Z,7.70
2022-10-04T20:22:24.951Z,11.60
2022-10-04T20:24:51.305Z,10.05
2022-10-04T20:27:20.661Z,9.38
2022-10-04T20:29:51.493Z,9.45
2022-10-04T20:32:26.815Z,8.57
2022-10-04T20:34:54.741Z,13.13
2022-10-04T20:37:21.830Z,12.73
2022-10-04T20:39:48.106Z,9.77
2022-10-04T20:42:33.940Z,15.80
2022-10-04T20:45:09.307Z,8.48
2022-10-04T20:47:49.598Z,8.80
2022-10-04T20:50:20.272Z,8.25
2022-10-04T20:52:55.645Z,8.15
2022-10-04T20:55:28.045Z,7.05
2022-10-04T20:57:56.120Z,8.85
2022-10-04T21:00:25.517Z,8.02
2022-10-04T21:03:07.425Z,11.13
2022-10-04T21:05:33.755Z,9.90
2022-10-04T21:08:12.050Z,8.27
2022-10-04T21:10:38.477Z,8.25
2022-10-04T21:13:04.816Z,7.63
2022-10-04T21:15:31.128Z,7.78
2022-10-04T21:18:07.005Z,8.13
2022-10-04T21:20:52.033Z,10.40
2022-10-04T21:23:29.835Z,11.77
2022-10-04T21:26:21.532Z,9.40
2022-10-04T21:28:48.827Z,6.45
2022-10-04T21:31:15.202Z,5.32
2022-10-04T21:33:42.382Z,6.57
2022-10-04T21:36:08.954Z,5.05
2022-10-04T21:38:35.490Z,8.75
2022-10-04T21:41:02.207Z,7.43
2022-10-04T21:43:28.672Z,6.05
2022-10-04T21:45:55.355Z,5.43
2022-10-04T21:48:23.112Z,5.00
2022-10-04T21:50:51.105Z,6.60
2022-10-04T21:53:17.446Z,5.68
2022-10-04T21:55:43.938Z,5.35
2022-10-04T21:58:10.606Z,5.13
2022-10-04T22:00:37.032Z,5.45
2022-10-04T22:03:03.969Z,5.72
2022-10-04T22:05:30.435Z,4.68
2022-10-04T22:07:58.107Z,5.68
2022-10-04T22:10:24.692Z,14.07
2022-10-04T22:12:51.043Z,9.32
2022-10-04T22:15:17.496Z,6.75
2022-10-04T22:17:43.831Z,8.63
2022-10-04T22:20:10.146Z,8.50
2022-10-04T22:22:39.758Z,9.43
2022-10-04T22:25:17.178Z,7.70
2022-10-04T22:27:44.208Z,13.63
2022-10-04T22:30:20.300Z,9.02
2022-10-04T22:32:47.433Z,8.25
2022-10-04T22:35:15.677Z,5.63
2022-10-04T22:37:42.145Z,7.57
2022-10-04T22:40:23.888Z,7.25
2022-10-04T22:42:54.635Z,9.60
2022-10-04T22:45:24.002Z,6.25
2022-10-04T22:47:51.155Z,5.32
2022-10-04T22:50:29.788Z,6.60
2022-10-04T22:52:56.396Z,7.35
2022-10-04T22:55:22.872Z,6.95
2022-10-04T22:57:49.564Z,7.18
2022-10-04T23:00:16.001Z,7.53
2022-10-04T23:02:42.390Z,7.35
2022-10-04T23:05:13.991Z,8.30
2022-10-04T23:07:41.565Z,6.20
2022-10-04T23:10:08.518Z,6.60
2022-10-04T23:12:34.971Z,6.82
2022-10-04T23:15:02.105Z,8.00
2022-10-04T23:17:34.791Z,6.53
2022-10-04T23:20:12.641Z,7.55
2022-10-04T23:22:40.261Z,6.32
2022-10-04T23:25:33.791Z,6.63
2022-10-04T23:28:11.270Z,6.90
2022-10-04T23:30:37.735Z,7.80
2022-10-04T23:33:37.211Z,7.45
2022-10-04T23:36:16.616Z,12.45
2022-10-04T23:38:48.233Z,9.73
2022-10-04T23:41:14.961Z,7.45
2022-10-04T23:43:41.486Z,6.82
2022-10-04T23:46:14.007Z,6.22
2022-10-04T23:48:40.978Z,9.18
2022-10-04T23:51:10.952Z,7.13
2022-10-04T23:53:37.273Z,7.88
2022-10-04T23:56:06.865Z,7.22
2022-10-04T23:58:36.332Z,8.10
